sensor_id;sensor_type;location;lat;lon;timestamp;temperature;humidity
34460;DHT22;20704;51.260;22.558;2022-08-21T00:00:38;19.70;99.90
34460;DHT22;20704;51.260;22.558;2022-08-21T00:03:08;18.70;99.90
34460;DHT22;20704;51.260;22.558;2022-08-21T00:05:44;19.80;99.90
34460;DHT22;20704;51.260;22.558;2022-08-21T00:10:39;19.50;99.90
34460;DHT22;20704;51.260;22.558;2022-08-21T00:15:34;19.40;99.90
34460;DHT22;20704;51.260;22.558;2022-08-21T00:30:16;19.20;99.90
34460;DHT22;20704;51.260;22.558;2022-08-21T00:35:13;19.30;99.90
34460;DHT22;20704;51.260;22.558;2022-08-21T00:37:40;19.20;99.90
34460;DHT22;20704;51.260;22.558;2022-08-21T00:40:11;19.20;99.90
34460;DHT22;20704;51.260;22.558;2022-08-21T00:52:27;17.30;99.90
34460;DHT22;20704;51.260;22.558;2022-08-21T00:54:55;19.10;99.90
34460;DHT22;20704;51.260;22.558;2022-08-21T00:57:30;19.20;99.90
34460;DHT22;20704;51.260;22.558;2022-08-21T01:00:00;19.20;99.90
34460;DHT22;20704;51.260;22.558;2022-08-21T01:02:27;19.10;99.90
34460;DHT22;20704;51.260;22.558;2022-08-21T01:07:20;19.30;99.90
34460;DHT22;20704;51.260;22.558;2022-08-21T01:09:46;19.20;99.90
34460;DHT22;20704;51.260;22.558;2022-08-21T01:14:40;19.00;99.90
34460;DHT22;20704;51.260;22.558;2022-08-21T01:17:09;18.80;99.90
34460;DHT22;20704;51.260;22.558;2022-08-21T01:26:58;19.30;99.90
34460;DHT22;20704;51.260;22.558;2022-08-21T01:32:10;19.20;99.90
34460;DHT22;20704;51.260;22.558;2022-08-21T01:34:40;19.20;99.90
34460;DHT22;20704;51.260;22.558;2022-08-21T01:44:26;19.10;99.90
34460;DHT22;20704;51.260;22.558;2022-08-21T01:56:42;19.00;99.90
34460;DHT22;20704;51.260;22.558;2022-08-21T02:26:04;18.70;99.90
34460;DHT22;20704;51.260;22.558;2022-08-21T02:33:26;18.60;99.90
34460;DHT22;20704;51.260;22.558;2022-08-21T02:38:23;18.50;99.90
34460;DHT22;20704;51.260;22.558;2022-08-21T02:40:50;18.40;99.90
34460;DHT22;20704;51.260;22.558;2022-08-21T02:43:18;18.40;99.90
34460;DHT22;20704;51.260;22.558;2022-08-21T02:45:45;18.40;99.90
34460;DHT22;20704;51.260;22.558;2022-08-21T02:48:15;18.30;99.90
34460;DHT22;20704;51.260;22.558;2022-08-21T02:50:47;18.40;99.90
34460;DHT22;20704;51.260;22.558;2022-08-21T02:53:15;18.30;99.90
34460;DHT22;20704;51.260;22.558;2022-08-21T02:55:46;18.30;99.90
34460;DHT22;20704;51.260;22.558;2022-08-21T02:58:15;18.30;99.90
34460;DHT22;20704;51.260;22.558;2022-08-21T03:00:43;18.20;99.90
34460;DHT22;20704;51.260;22.558;2022-08-21T03:08:06;18.10;99.90
34460;DHT22;20704;51.260;22.558;2022-08-21T03:10:36;18.10;99.90
34460;DHT22;20704;51.260;22.558;2022-08-21T03:15:29;18.00;99.90
34460;DHT22;20704;51.260;22.558;2022-08-21T03:20:25;18.00;99.90
34460;DHT22;20704;51.260;22.558;2022-08-21T03:22:53;17.90;99.90
34460;DHT22;20704;51.260;22.558;2022-08-21T03:25:20;17.50;99.90
34460;DHT22;20704;51.260;22.558;2022-08-21T03:30:18;17.60;99.90
34460;DHT22;20704;51.260;22.558;2022-08-21T03:32:46;17.90;99.90
34460;DHT22;20704;51.260;22.558;2022-08-21T03:40:12;19.30;99.90
34460;DHT22;20704;51.260;22.558;2022-08-21T03:45:06;18.00;99.90
34460;DHT22;20704;51.260;22.558;2022-08-21T03:59:45;18.00;99.90
34460;DHT22;20704;51.260;22.558;2022-08-21T04:02:14;18.10;99.90
34460;DHT22;20704;51.260;22.558;2022-08-21T04:04:42;18.30;99.90
34460;DHT22;20704;51.260;22.558;2022-08-21T04:31:35;18.50;99.90
34460;DHT22;20704;51.260;22.558;2022-08-21T04:36:32;18.50;99.90
34460;DHT22;20704;51.260;22.558;2022-08-21T04:51:33;19.20;99.90
34460;DHT22;20704;51.260;22.558;2022-08-21T04:54:09;19.50;99.90
34460;DHT22;20704;51.260;22.558;2022-08-21T04:56:42;19.90;99.90
34460;DHT22;20704;51.260;22.558;2022-08-21T04:59:28;19.60;99.90
34460;DHT22;20704;51.260;22.558;2022-08-21T05:04:25;20.20;99.90
34460;DHT22;20704;51.260;22.558;2022-08-21T05:06:54;19.50;99.90
34460;DHT22;20704;51.260;22.558;2022-08-21T05:09:23;20.00;99.90
34460;DHT22;20704;51.260;22.558;2022-08-21T05:14:17;20.20;99.90
34460;DHT22;20704;51.260;22.558;2022-08-21T05:16:46;21.10;99.90
34460;DHT22;20704;51.260;22.558;2022-08-21T05:21:41;20.40;99.90
34460;DHT22;20704;51.260;22.558;2022-08-21T05:24:07;21.10;99.90
34460;DHT22;20704;51.260;22.558;2022-08-21T05:29:02;22.30;99.90
34460;DHT22;20704;51.260;22.558;2022-08-21T05:48:35;25.00;99.90
34460;DHT22;20704;51.260;22.558;2022-08-21T05:51:13;25.10;99.90
34460;DHT22;20704;51.260;22.558;2022-08-21T05:53:41;22.90;99.90
34460;DHT22;20704;51.260;22.558;2022-08-21T06:01:02;23.80;99.90
34460;DHT22;20704;51.260;22.558;2022-08-21T06:03:31;23.90;99.90
34460;DHT22;20704;51.260;22.558;2022-08-21T06:10:52;25.30;99.90
34460;DHT22;20704;51.260;22.558;2022-08-21T06:13:19;24.20;99.90
34460;DHT22;20704;51.260;22.558;2022-08-21T06:15:47;23.00;99.90
34460;DHT22;20704;51.260;22.558;2022-08-21T06:28:07;22.80;99.90
34460;DHT22;20704;51.260;22.558;2022-08-21T06:30:35;22.90;99.90
34460;DHT22;20704;51.260;22.558;2022-08-21T06:33:02;22.40;99.90
34460;DHT22;20704;51.260;22.558;2022-08-21T06:37:56;24.10;99.90
34460;DHT22;20704;51.260;22.558;2022-08-21T06:45:15;24.60;99.90
34460;DHT22;20704;51.260;22.558;2022-08-21T06:50:08;25.20;99.90
34460;DHT22;20704;51.260;22.558;2022-08-21T06:52:36;25.30;99.90
34460;DHT22;20704;51.260;22.558;2022-08-21T06:55:06;25.00;99.90
34460;DHT22;20704;51.260;22.558;2022-08-21T07:04:52;26.40;99.90
34460;DHT22;20704;51.260;22.558;2022-08-21T07:07:18;26.50;99.90
34460;DHT22;20704;51.260;22.558;2022-08-21T07:09:44;25.90;99.90
34460;DHT22;20704;51.260;22.558;2022-08-21T07:17:03;25.60;99.90
34460;DHT22;20704;51.260;22.558;2022-08-21T07:19:29;26.50;99.90
34460;DHT22;20704;51.260;22.558;2022-08-21T07:21:58;27.00;99.90
34460;DHT22;20704;51.260;22.558;2022-08-21T07:24:25;27.20;99.90
34460;DHT22;20704;51.260;22.558;2022-08-21T07:26:51;26.90;99.90
34460;DHT22;20704;51.260;22.558;2022-08-21T07:36:37;26.30;99.90
34460;DHT22;20704;51.260;22.558;2022-08-21T07:39:03;26.10;99.90
34460;DHT22;20704;51.260;22.558;2022-08-21T07:43:58;27.10;99.90
34460;DHT22;20704;51.260;22.558;2022-08-21T07:46:25;27.70;99.90
34460;DHT22;20704;51.260;22.558;2022-08-21T07:51:24;28.00;99.90
34460;DHT22;20704;51.260;22.558;2022-08-21T07:53:52;27.80;99.90
34460;DHT22;20704;51.260;22.558;2022-08-21T08:01:12;27.50;99.90
34460;DHT22;20704;51.260;22.558;2022-08-21T08:06:06;27.30;99.90
34460;DHT22;20704;51.260;22.558;2022-08-21T08:11:00;27.40;99.90
34460;DHT22;20704;51.260;22.558;2022-08-21T08:18:19;26.50;99.90
34460;DHT22;20704;51.260;22.558;2022-08-21T08:20:45;26.40;99.90
34460;DHT22;20704;51.260;22.558;2022-08-21T08:23:13;27.20;99.90
34460;DHT22;20704;51.260;22.558;2022-08-21T08:28:06;27.50;99.90
34460;DHT22;20704;51.260;22.558;2022-08-21T08:30:32;27.30;99.90
34460;DHT22;20704;51.260;22.558;2022-08-21T08:32:59;27.80;99.90
34460;DHT22;20704;51.260;22.558;2022-08-21T08:35:25;28.10;99.90
34460;DHT22;20704;51.260;22.558;2022-08-21T08:43:20;27.80;99.90
34460;DHT22;20704;51.260;22.558;2022-08-21T08:45:50;28.40;99.90
34460;DHT22;20704;51.260;22.558;2022-08-21T08:48:40;28.20;99.90
34460;DHT22;20704;51.260;22.558;2022-08-21T08:51:37;28.30;99.90
34460;DHT22;20704;51.260;22.558;2022-08-21T08:54:09;27.90;99.90
34460;DHT22;20704;51.260;22.558;2022-08-21T08:56:37;27.90;99.90
34460;DHT22;20704;51.260;22.558;2022-08-21T08:59:11;27.80;99.90
34460;DHT22;20704;51.260;22.558;2022-08-21T09:04:06;26.80;99.90
34460;DHT22;20704;51.260;22.558;2022-08-21T09:06:48;27.80;99.90
34460;DHT22;20704;51.260;22.558;2022-08-21T09:20:32;27.10;99.90
34460;DHT22;20704;51.260;22.558;2022-08-21T09:31:11;27.30;99.90
34460;DHT22;20704;51.260;22.558;2022-08-21T09:38:37;27.20;99.90
34460;DHT22;20704;51.260;22.558;2022-08-21T09:41:06;26.90;99.90
34460;DHT22;20704;51.260;22.558;2022-08-21T09:43:35;26.60;99.90
34460;DHT22;20704;51.260;22.558;2022-08-21T09:46:20;26.70;99.90
34460;DHT22;20704;51.260;22.558;2022-08-21T09:48:49;26.20;99.90
34460;DHT22;20704;51.260;22.558;2022-08-21T09:51:29;25.60;99.90
34460;DHT22;20704;51.260;22.558;2022-08-21T09:54:17;25.80;99.90
34460;DHT22;20704;51.260;22.558;2022-08-21T09:56:59;26.10;99.90
34460;DHT22;20704;51.260;22.558;2022-08-21T09:59:46;26.70;99.90
34460;DHT22;20704;51.260;22.558;2022-08-21T10:02:29;27.40;99.90
34460;DHT22;20704;51.260;22.558;2022-08-21T10:05:01;27.60;99.90
34460;DHT22;20704;51.260;22.558;2022-08-21T10:07:30;27.50;99.90
34460;DHT22;20704;51.260;22.558;2022-08-21T10:10:20;27.60;99.90
34460;DHT22;20704;51.260;22.558;2022-08-21T10:12:53;27.40;99.90
34460;DHT22;20704;51.260;22.558;2022-08-21T10:18:28;26.40;99.90
34460;DHT22;20704;51.260;22.558;2022-08-21T10:21:15;26.20;99.90
34460;DHT22;20704;51.260;22.558;2022-08-21T10:24:03;26.50;99.90
34460;DHT22;20704;51.260;22.558;2022-08-21T10:29:14;26.80;99.90
34460;DHT22;20704;51.260;22.558;2022-08-21T10:40:31;26.90;99.90
34460;DHT22;20704;51.260;22.558;2022-08-21T10:52:09;26.50;99.90
34460;DHT22;20704;51.260;22.558;2022-08-21T10:54:51;26.50;99.90
34460;DHT22;20704;51.260;22.558;2022-08-21T10:57:43;27.60;99.90
34460;DHT22;20704;51.260;22.558;2022-08-21T11:00:22;27.20;99.90
34460;DHT22;20704;51.260;22.558;2022-08-21T11:03:13;27.50;99.90
34460;DHT22;20704;51.260;22.558;2022-08-21T11:05:41;27.40;99.90
34460;DHT22;20704;51.260;22.558;2022-08-21T11:08:15;27.20;99.90
34460;DHT22;20704;51.260;22.558;2022-08-21T11:10:52;27.70;99.90
34460;DHT22;20704;51.260;22.558;2022-08-21T11:13:48;27.40;99.90
34460;DHT22;20704;51.260;22.558;2022-08-21T11:16:43;27.50;99.90
34460;DHT22;20704;51.260;22.558;2022-08-21T11:19:17;26.90;99.90
34460;DHT22;20704;51.260;22.558;2022-08-21T11:21:50;27.00;99.90
34460;DHT22;20704;51.260;22.558;2022-08-21T11:27:34;26.60;99.90
34460;DHT22;20704;51.260;22.558;2022-08-21T11:30:02;26.80;99.90
34460;DHT22;20704;51.260;22.558;2022-08-21T11:32:47;26.80;99.90
34460;DHT22;20704;51.260;22.558;2022-08-21T11:38:06;26.70;99.90
34460;DHT22;20704;51.260;22.558;2022-08-21T11:43:32;26.30;99.90
34460;DHT22;20704;51.260;22.558;2022-08-21T11:46:28;26.60;99.90
34460;DHT22;20704;51.260;22.558;2022-08-21T11:54:58;26.90;99.90
34460;DHT22;20704;51.260;22.558;2022-08-21T11:57:31;27.30;99.90
34460;DHT22;20704;51.260;22.558;2022-08-21T12:00:06;27.50;99.90
34460;DHT22;20704;51.260;22.558;2022-08-21T12:02:45;27.50;99.90
34460;DHT22;20704;51.260;22.558;2022-08-21T12:05:32;27.40;99.90
34460;DHT22;20704;51.260;22.558;2022-08-21T12:10:41;27.30;99.90
34460;DHT22;20704;51.260;22.558;2022-08-21T12:13:26;26.90;99.90
34460;DHT22;20704;51.260;22.558;2022-08-21T12:16:08;26.70;99.90
34460;DHT22;20704;51.260;22.558;2022-08-21T12:21:17;26.50;99.90
34460;DHT22;20704;51.260;22.558;2022-08-21T12:31:24;26.60;99.90
34460;DHT22;20704;51.260;22.558;2022-08-21T12:33:55;26.60;99.90
34460;DHT22;20704;51.260;22.558;2022-08-21T12:36:45;26.70;99.90
34460;DHT22;20704;51.260;22.558;2022-08-21T12:39:15;26.70;99.90
34460;DHT22;20704;51.260;22.558;2022-08-21T12:41:57;26.70;99.90
34460;DHT22;20704;51.260;22.558;2022-08-21T12:47:12;26.60;99.90
34460;DHT22;20704;51.260;22.558;2022-08-21T12:55:27;23.60;99.90
34460;DHT22;20704;51.260;22.558;2022-08-21T12:57:54;26.30;99.90
34460;DHT22;20704;51.260;22.558;2022-08-21T13:00:23;26.40;99.90
34460;DHT22;20704;51.260;22.558;2022-08-21T13:02:50;26.50;99.90
34460;DHT22;20704;51.260;22.558;2022-08-21T13:05:36;26.50;99.90
34460;DHT22;20704;51.260;22.558;2022-08-21T13:08:04;26.60;99.90
34460;DHT22;20704;51.260;22.558;2022-08-21T13:10:33;26.80;99.90
34460;DHT22;20704;51.260;22.558;2022-08-21T13:13:11;27.00;99.90
34460;DHT22;20704;51.260;22.558;2022-08-21T13:15:40;27.00;99.90
34460;DHT22;20704;51.260;22.558;2022-08-21T13:20:36;26.70;99.90
34460;DHT22;20704;51.260;22.558;2022-08-21T13:23:15;27.10;99.90
34460;DHT22;20704;51.260;22.558;2022-08-21T13:28:12;27.30;99.90
34460;DHT22;20704;51.260;22.558;2022-08-21T13:30:51;27.10;99.90
34460;DHT22;20704;51.260;22.558;2022-08-21T13:33:20;27.00;99.90
34460;DHT22;20704;51.260;22.558;2022-08-21T13:38:20;26.80;99.90
34460;DHT22;20704;51.260;22.558;2022-08-21T13:40:54;26.70;99.90
34460;DHT22;20704;51.260;22.558;2022-08-21T13:43:26;26.60;99.90
34460;DHT22;20704;51.260;22.558;2022-08-21T13:45:55;26.40;99.90
34460;DHT22;20704;51.260;22.558;2022-08-21T13:48:23;26.30;99.90
34460;DHT22;20704;51.260;22.558;2022-08-21T13:50:51;26.50;99.90
34460;DHT22;20704;51.260;22.558;2022-08-21T13:55:55;26.90;99.90
34460;DHT22;20704;51.260;22.558;2022-08-21T13:58:27;26.90;99.90
34460;DHT22;20704;51.260;22.558;2022-08-21T14:00:54;26.80;99.90
34460;DHT22;20704;51.260;22.558;2022-08-21T14:03:41;26.70;99.90
34460;DHT22;20704;51.260;22.558;2022-08-21T14:06:20;26.70;99.90
34460;DHT22;20704;51.260;22.558;2022-08-21T14:08:53;26.70;99.90
34460;DHT22;20704;51.260;22.558;2022-08-21T14:11:21;26.60;99.90
34460;DHT22;20704;51.260;22.558;2022-08-21T14:16:24;26.80;99.90
34460;DHT22;20704;51.260;22.558;2022-08-21T14:19:35;26.60;99.90
34460;DHT22;20704;51.260;22.558;2022-08-21T14:21:54;26.40;99.90
34460;DHT22;20704;51.260;22.558;2022-08-21T14:26:52;26.60;99.90
34460;DHT22;20704;51.260;22.558;2022-08-21T14:29:21;26.70;99.90
34460;DHT22;20704;51.260;22.558;2022-08-21T14:31:53;26.70;99.90
34460;DHT22;20704;51.260;22.558;2022-08-21T14:34:21;26.50;99.90
34460;DHT22;20704;51.260;22.558;2022-08-21T14:36:48;26.40;99.90
34460;DHT22;20704;51.260;22.558;2022-08-21T14:39:15;26.50;99.90
34460;DHT22;20704;51.260;22.558;2022-08-21T14:41:41;26.60;99.90
34460;DHT22;20704;51.260;22.558;2022-08-21T14:44:09;26.60;99.90
34460;DHT22;20704;51.260;22.558;2022-08-21T14:46:36;27.00;99.90
34460;DHT22;20704;51.260;22.558;2022-08-21T14:49:03;26.70;99.90
34460;DHT22;20704;51.260;22.558;2022-08-21T14:51:30;26.80;99.90
34460;DHT22;20704;51.260;22.558;2022-08-21T14:53:56;26.90;99.90
34460;DHT22;20704;51.260;22.558;2022-08-21T14:56:22;27.00;99.90
34460;DHT22;20704;51.260;22.558;2022-08-21T14:58:50;27.00;99.90
34460;DHT22;20704;51.260;22.558;2022-08-21T15:01:19;25.70;99.90
34460;DHT22;20704;51.260;22.558;2022-08-21T15:03:47;26.60;99.90
34460;DHT22;20704;51.260;22.558;2022-08-21T15:06:15;26.50;99.90
34460;DHT22;20704;51.260;22.558;2022-08-21T15:08:41;26.50;99.90
34460;DHT22;20704;51.260;22.558;2022-08-21T15:11:21;26.20;99.90
34460;DHT22;20704;51.260;22.558;2022-08-21T15:13:53;26.10;99.90
34460;DHT22;20704;51.260;22.558;2022-08-21T15:16:19;25.90;99.90
34460;DHT22;20704;51.260;22.558;2022-08-21T15:18:45;25.80;99.90
34460;DHT22;20704;51.260;22.558;2022-08-21T15:21:11;25.60;99.90
34460;DHT22;20704;51.260;22.558;2022-08-21T15:23:37;25.60;99.90
34460;DHT22;20704;51.260;22.558;2022-08-21T15:26:03;25.20;99.90
34460;DHT22;20704;51.260;22.558;2022-08-21T15:28:29;25.00;99.90
34460;DHT22;20704;51.260;22.558;2022-08-21T15:30:55;25.10;99.90
34460;DHT22;20704;51.260;22.558;2022-08-21T15:35:48;25.10;99.90
34460;DHT22;20704;51.260;22.558;2022-08-21T15:38:15;25.30;99.90
34460;DHT22;20704;51.260;22.558;2022-08-21T15:40:41;25.30;99.90
34460;DHT22;20704;51.260;22.558;2022-08-21T15:43:22;25.60;99.90
34460;DHT22;20704;51.260;22.558;2022-08-21T15:45:48;25.30;99.90
34460;DHT22;20704;51.260;22.558;2022-08-21T15:48:14;25.30;99.90
34460;DHT22;20704;51.260;22.558;2022-08-21T15:50:40;25.20;99.90
34460;DHT22;20704;51.260;22.558;2022-08-21T15:53:06;25.20;99.90
34460;DHT22;20704;51.260;22.558;2022-08-21T15:55:34;25.20;99.90
34460;DHT22;20704;51.260;22.558;2022-08-21T16:00:27;24.80;99.90
34460;DHT22;20704;51.260;22.558;2022-08-21T16:02:57;24.80;99.90
34460;DHT22;20704;51.260;22.558;2022-08-21T16:05:23;25.00;99.90
34460;DHT22;20704;51.260;22.558;2022-08-21T16:07:50;25.00;99.90
34460;DHT22;20704;51.260;22.558;2022-08-21T16:10:19;24.90;99.90
34460;DHT22;20704;51.260;22.558;2022-08-21T16:12:57;25.10;99.90
34460;DHT22;20704;51.260;22.558;2022-08-21T16:15:25;25.10;99.90
34460;DHT22;20704;51.260;22.558;2022-08-21T16:17:52;24.70;99.90
34460;DHT22;20704;51.260;22.558;2022-08-21T16:20:24;24.60;99.90
34460;DHT22;20704;51.260;22.558;2022-08-21T16:22:52;24.50;99.90
34460;DHT22;20704;51.260;22.558;2022-08-21T16:27:48;24.70;99.90
34460;DHT22;20704;51.260;22.558;2022-08-21T16:30:17;24.50;99.90
34460;DHT22;20704;51.260;22.558;2022-08-21T16:32:44;24.40;99.90
34460;DHT22;20704;51.260;22.558;2022-08-21T16:35:13;24.30;99.90
34460;DHT22;20704;51.260;22.558;2022-08-21T16:37:40;24.30;99.90
34460;DHT22;20704;51.260;22.558;2022-08-21T16:40:08;24.20;99.90
34460;DHT22;20704;51.260;22.558;2022-08-21T16:42:36;24.10;99.90
34460;DHT22;20704;51.260;22.558;2022-08-21T16:45:09;24.10;99.90
34460;DHT22;20704;51.260;22.558;2022-08-21T16:54:56;23.90;99.90
34460;DHT22;20704;51.260;22.558;2022-08-21T16:57:24;23.80;99.90
34460;DHT22;20704;51.260;22.558;2022-08-21T16:59:50;23.70;99.90
34460;DHT22;20704;51.260;22.558;2022-08-21T17:02:32;23.30;99.90
34460;DHT22;20704;51.260;22.558;2022-08-21T17:05:00;23.20;99.90
34460;DHT22;20704;51.260;22.558;2022-08-21T17:07:28;23.70;99.90
34460;DHT22;20704;51.260;22.558;2022-08-21T17:09:54;23.20;99.90
34460;DHT22;20704;51.260;22.558;2022-08-21T17:12:20;23.30;99.90
34460;DHT22;20704;51.260;22.558;2022-08-21T17:14:47;23.30;99.90
34460;DHT22;20704;51.260;22.558;2022-08-21T17:17:14;23.20;99.90
34460;DHT22;20704;51.260;22.558;2022-08-21T17:19:41;23.20;99.90
34460;DHT22;20704;51.260;22.558;2022-08-21T17:22:07;23.20;99.90
34460;DHT22;20704;51.260;22.558;2022-08-21T17:24:35;23.20;99.90
34460;DHT22;20704;51.260;22.558;2022-08-21T17:27:02;23.30;99.90
34460;DHT22;20704;51.260;22.558;2022-08-21T17:29:37;23.00;99.90
34460;DHT22;20704;51.260;22.558;2022-08-21T17:32:10;22.90;99.90
34460;DHT22;20704;51.260;22.558;2022-08-21T17:34:37;22.80;99.90
34460;DHT22;20704;51.260;22.558;2022-08-21T17:37:05;22.70;99.90
34460;DHT22;20704;51.260;22.558;2022-08-21T17:39:31;22.80;99.90
34460;DHT22;20704;51.260;22.558;2022-08-21T17:42:02;22.70;99.90
34460;DHT22;20704;51.260;22.558;2022-08-21T17:44:28;22.60;99.90
34460;DHT22;20704;51.260;22.558;2022-08-21T17:46:54;22.20;99.90
34460;DHT22;20704;51.260;22.558;2022-08-21T17:49:20;22.70;99.90
34460;DHT22;20704;51.260;22.558;2022-08-21T17:51:46;22.70;99.90
34460;DHT22;20704;51.260;22.558;2022-08-21T17:54:12;22.20;99.90
34460;DHT22;20704;51.260;22.558;2022-08-21T17:56:40;22.60;99.90
34460;DHT22;20704;51.260;22.558;2022-08-21T18:01:40;22.50;99.90
34460;DHT22;20704;51.260;22.558;2022-08-21T18:04:08;21.90;99.90
34460;DHT22;20704;51.260;22.558;2022-08-21T18:06:34;22.60;99.90
34460;DHT22;20704;51.260;22.558;2022-08-21T18:11:28;22.50;99.90
34460;DHT22;20704;51.260;22.558;2022-08-21T18:13:56;22.60;99.90
34460;DHT22;20704;51.260;22.558;2022-08-21T18:16:30;22.50;99.90
34460;DHT22;20704;51.260;22.558;2022-08-21T18:19:00;22.40;99.90
34460;DHT22;20704;51.260;22.558;2022-08-21T18:21:27;22.30;99.90
34460;DHT22;20704;51.260;22.558;2022-08-21T18:23:54;22.20;99.90
34460;DHT22;20704;51.260;22.558;2022-08-21T18:26:26;22.20;99.90
34460;DHT22;20704;51.260;22.558;2022-08-21T18:28:54;21.70;99.90
34460;DHT22;20704;51.260;22.558;2022-08-21T18:31:20;22.10;99.90
34460;DHT22;20704;51.260;22.558;2022-08-21T18:33:46;22.10;99.90
34460;DHT22;20704;51.260;22.558;2022-08-21T18:36:12;22.10;99.90
34460;DHT22;20704;51.260;22.558;2022-08-21T18:38:38;22.00;99.90
34460;DHT22;20704;51.260;22.558;2022-08-21T18:41:04;22.40;99.90
34460;DHT22;20704;51.260;22.558;2022-08-21T18:45:57;22.10;99.90
34460;DHT22;20704;51.260;22.558;2022-08-21T18:48:24;22.00;99.90
34460;DHT22;20704;51.260;22.558;2022-08-21T18:50:49;22.00;99.90
34460;DHT22;20704;51.260;22.558;2022-08-21T18:55:43;22.00;99.90
34460;DHT22;20704;51.260;22.558;2022-08-21T18:58:12;21.90;99.90
34460;DHT22;20704;51.260;22.558;2022-08-21T19:00:42;22.20;99.90
34460;DHT22;20704;51.260;22.558;2022-08-21T19:03:17;20.80;99.90
34460;DHT22;20704;51.260;22.558;2022-08-21T19:05:44;21.70;99.90
34460;DHT22;20704;51.260;22.558;2022-08-21T19:08:11;21.70;99.90
34460;DHT22;20704;51.260;22.558;2022-08-21T19:10:39;21.80;99.90
34460;DHT22;20704;51.260;22.558;2022-08-21T19:15:33;21.70;99.90
34460;DHT22;20704;51.260;22.558;2022-08-21T19:18:02;21.70;99.90
34460;DHT22;20704;51.260;22.558;2022-08-21T19:20:32;21.80;99.90
34460;DHT22;20704;51.260;22.558;2022-08-21T19:23:03;21.80;99.90
34460;DHT22;20704;51.260;22.558;2022-08-21T19:25:30;21.70;99.90
34460;DHT22;20704;51.260;22.558;2022-08-21T19:27:56;21.70;99.90
34460;DHT22;20704;51.260;22.558;2022-08-21T19:30:22;21.60;99.90
34460;DHT22;20704;51.260;22.558;2022-08-21T19:35:15;21.60;99.90
34460;DHT22;20704;51.260;22.558;2022-08-21T19:37:43;21.50;99.90
34460;DHT22;20704;51.260;22.558;2022-08-21T19:40:12;21.60;99.90
34460;DHT22;20704;51.260;22.558;2022-08-21T19:42:39;21.10;99.90
34460;DHT22;20704;51.260;22.558;2022-08-21T19:45:05;21.20;99.90
34460;DHT22;20704;51.260;22.558;2022-08-21T19:47:34;21.30;99.90
34460;DHT22;20704;51.260;22.558;2022-08-21T19:50:03;21.50;99.90
34460;DHT22;20704;51.260;22.558;2022-08-21T19:52:30;21.30;99.90
34460;DHT22;20704;51.260;22.558;2022-08-21T19:57:24;21.50;99.90
34460;DHT22;20704;51.260;22.558;2022-08-21T20:04:45;21.20;99.90
34460;DHT22;20704;51.260;22.558;2022-08-21T20:07:11;21.10;99.90
34460;DHT22;20704;51.260;22.558;2022-08-21T20:09:37;21.00;99.90
34460;DHT22;20704;51.260;22.558;2022-08-21T20:12:06;20.80;99.90
34460;DHT22;20704;51.260;22.558;2022-08-21T20:14:35;20.80;99.90
34460;DHT22;20704;51.260;22.558;2022-08-21T20:17:07;21.10;99.90
34460;DHT22;20704;51.260;22.558;2022-08-21T20:19:35;21.40;99.90
34460;DHT22;20704;51.260;22.558;2022-08-21T20:22:01;21.30;99.90
34460;DHT22;20704;51.260;22.558;2022-08-21T20:24:28;21.10;99.90
34460;DHT22;20704;51.260;22.558;2022-08-21T20:29:21;21.00;99.90
34460;DHT22;20704;51.260;22.558;2022-08-21T20:34:14;20.90;99.90
34460;DHT22;20704;51.260;22.558;2022-08-21T20:36:40;21.30;99.90
34460;DHT22;20704;51.260;22.558;2022-08-21T20:39:06;21.00;99.90
34460;DHT22;20704;51.260;22.558;2022-08-21T20:41:33;21.20;99.90
34460;DHT22;20704;51.260;22.558;2022-08-21T20:44:00;21.30;99.90
34460;DHT22;20704;51.260;22.558;2022-08-21T20:46:29;21.20;99.90
34460;DHT22;20704;51.260;22.558;2022-08-21T20:48:55;21.10;99.90
34460;DHT22;20704;51.260;22.558;2022-08-21T20:51:36;21.30;99.90
34460;DHT22;20704;51.260;22.558;2022-08-21T20:54:20;20.90;99.90
34460;DHT22;20704;51.260;22.558;2022-08-21T20:56:59;21.20;99.90
34460;DHT22;20704;51.260;22.558;2022-08-21T21:02:21;20.70;99.90
34460;DHT22;20704;51.260;22.558;2022-08-21T21:07:37;21.10;99.90
34460;DHT22;20704;51.260;22.558;2022-08-21T21:10:11;21.10;99.90
34460;DHT22;20704;51.260;22.558;2022-08-21T21:12:42;20.80;99.90
34460;DHT22;20704;51.260;22.558;2022-08-21T21:15:20;21.00;99.90
34460;DHT22;20704;51.260;22.558;2022-08-21T21:17:53;21.00;99.90
34460;DHT22;20704;51.260;22.558;2022-08-21T21:20:47;20.90;99.90
34460;DHT22;20704;51.260;22.558;2022-08-21T21:26:33;21.10;99.90
34460;DHT22;20704;51.260;22.558;2022-08-21T21:31:35;21.30;99.90
34460;DHT22;20704;51.260;22.558;2022-08-21T21:34:01;21.00;99.90
34460;DHT22;20704;51.260;22.558;2022-08-21T21:41:58;20.80;99.90
34460;DHT22;20704;51.260;22.558;2022-08-21T21:45:11;21.00;99.90
34460;DHT22;20704;51.260;22.558;2022-08-21T21:50:45;20.60;99.90
34460;DHT22;20704;51.260;22.558;2022-08-21T21:53:48;21.20;99.90
34460;DHT22;20704;51.260;22.558;2022-08-21T22:01:43;20.90;99.90
34460;DHT22;20704;51.260;22.558;2022-08-21T22:09:57;20.30;99.90
34460;DHT22;20704;51.260;22.558;2022-08-21T22:15:17;20.60;99.90
34460;DHT22;20704;51.260;22.558;2022-08-21T22:23:03;20.80;99.90
34460;DHT22;20704;51.260;22.558;2022-08-21T22:25:39;20.90;99.90
34460;DHT22;20704;51.260;22.558;2022-08-21T22:28:15;21.10;99.90
34460;DHT22;20704;51.260;22.558;2022-08-21T22:30:55;20.70;99.90
34460;DHT22;20704;51.260;22.558;2022-08-21T22:33:36;21.00;99.90
34460;DHT22;20704;51.260;22.558;2022-08-21T22:36:18;21.00;99.90
34460;DHT22;20704;51.260;22.558;2022-08-21T22:38:45;21.20;99.90
34460;DHT22;20704;51.260;22.558;2022-08-21T22:41:15;21.00;99.90
34460;DHT22;20704;51.260;22.558;2022-08-21T22:44:01;21.50;99.90
34460;DHT22;20704;51.260;22.558;2022-08-21T22:46:51;21.60;99.90
34460;DHT22;20704;51.260;22.558;2022-08-21T22:49:33;21.70;99.90
34460;DHT22;20704;51.260;22.558;2022-08-21T22:52:28;21.80;99.90
34460;DHT22;20704;51.260;22.558;2022-08-21T22:55:24;21.60;99.90
34460;DHT22;20704;51.260;22.558;2022-08-21T22:58:23;21.70;99.90
34460;DHT22;20704;51.260;22.558;2022-08-21T23:00:55;21.70;99.90
34460;DHT22;20704;51.260;22.558;2022-08-21T23:03:29;21.70;99.90
34460;DHT22;20704;51.260;22.558;2022-08-21T23:06:01;21.60;99.90
34460;DHT22;20704;51.260;22.558;2022-08-21T23:08:33;21.60;99.90
34460;DHT22;20704;51.260;22.558;2022-08-21T23:11:15;21.40;99.90